Terminal Aerodrome Forecast
Issued by NWS Shreveport, LA

Home | Current Version | Previous Version | Text Only | Print | Product List | Glossary On
Versions: 1 2 3 4 5 6 7 8 9 10 11 12 13 14
591
FTUS44 KSHV 242324
TAFTXK
TAF
KTXK 242324Z 2500/2524 14004KT P6SM VCSH SCT060
     FM250200 03004KT P6SM SKC
      TEMPO 2510/2514 5SM BR
     FM251400 15004KT P6SM SKC
     FM251600 14006KT P6SM SCT040
     FM252100 12006KT P6SM SCT050=

USA.gov is the U.S. government's official web portal to all federal, state and local government web resources and services.